logo
Search for airport 
image banner adimage banner adimage banner ad
image banner ad

CL21 - Sutter Amador Hospital

Located in Jackson, United States

ICAO - CL21, IATA -

Data provided by Airmate  

General information

Coordinates: N38°21'4" W120°45'50"
Elevation is 1246 feet MSL.
Magnetic variation is 16° East
View others Airports in California

Operational data

Special qualification required
Current time UTC:
Current local time:
METAR: KJAQ 060035Z AUTO 00000KT 10SM SCT031 SCT040 BKN070 09/06 A3000 RMK AO1 T00900062
View NOTAMs / SUP AIP / TFR affecting this airport [VIEW]
Communications frequencies: [VIEW]

Runways:

Airport contact information

Address: Jackson United States

Satellite view of CL21